Time;durP1;ratioP1;P1;durP2;ratioP2;P2;SDS_P1;SDS_P2;PMS_P1;PMS_P2;Temp;Humidity;BMP_temperature;BMP_pressure;BME280_temperature;BME280_humidity;BME280_pressure;Samples;Min_cycle;Max_cycle;Signal;HPM_P1;HPM_P2
2023/09/07 04:04:53;;;;;;;;;;;;;;;23.76;66.65;97093.31;4229343;27;10250;-71
2023/09/07 04:06:56;;;;;;;;;;;;;;;24.04;65.97;97088.44;4229370;28;5701;-72
2023/09/07 04:08:59;;;;;;;;;;;;;;;24.25;65.17;97089.25;4224326;28;5665;-72
2023/09/07 04:11:05;;;;;;;;;;;;;;;24.43;64.90;97085.97;4225376;28;5685;-74
2023/09/07 04:13:27;;;;;;;;;;;;;;;24.58;64.31;97094.03;4227569;28;5784;-73
2023/09/07 04:15:50;;;;;;;;;;;;;;;24.71;64.23;97095.34;4223495;28;5627;-74
2023/09/07 04:17:54;;;;;;;;;;;;;;;24.79;63.56;97097.47;4228230;28;5677;-72
2023/09/07 04:19:59;;;;;;;;;;;;;;;24.87;63.38;97093.38;4231261;28;5880;-71
2023/09/07 04:22:02;;;;;;;;;;;;;;;24.92;63.19;97096.88;4231157;28;5735;-72
2023/09/07 04:24:05;;;;;;;;;;;;;;;24.97;62.93;97096.03;4231308;28;5681;-74
2023/09/07 04:26:10;;;;;;;;;;;;;;;25.01;62.77;97104.41;4223384;28;5710;-71
2023/09/07 04:28:12;;;;;;;;;;;;;;;25.03;62.52;97094.13;4231203;28;5089;-71
2023/09/07 04:30:15;;;;;;;;;;;;;;;25.06;62.57;97093.59;4229855;28;5668;-71
2023/09/07 04:32:18;;;;;;;;;;;;;;;25.08;62.59;97099.53;4225788;28;5828;-72
2023/09/07 04:34:22;;;;;;;;;;;;;;;25.09;62.20;97093.84;4230006;28;5668;-72
2023/09/07 04:36:26;;;;;;;;;;;;;;;25.11;62.06;97097.06;4225827;28;5744;-72
2023/09/07 04:38:29;;;;;;;;;;;;;;;25.12;61.82;97092.47;4225772;28;5690;-71
2023/09/07 04:40:32;;;;;;;;;;;;;;;25.13;61.53;97100.31;4229845;27;5790;-66
2023/09/07 04:42:34;;;;;;;;;;;;;;;25.14;61.34;97098.41;4231304;28;6257;-67
2023/09/07 04:44:37;;;;;;;;;;;;;;;25.15;61.36;97095.44;4225842;28;5856;-67
2023/09/07 04:46:40;;;;;;;;;;;;;;;25.10;61.38;97100.06;4231303;28;5697;-67
2023/09/07 04:48:43;;;;;;;;;;;;;;;25.15;61.03;97100.84;4222475;28;5673;-66
2023/09/07 04:50:46;;;;;;;;;;;;;;;25.17;60.73;97106.00;4230637;28;5685;-66
2023/09/07 04:52:50;;;;;;;;;;;;;;;25.18;60.66;97104.91;4230861;28;5678;-66
2023/09/07 04:54:53;;;;;;;;;;;;;;;25.18;60.65;97107.59;4226754;28;5815;-65
2023/09/07 04:56:56;;;;;;;;;;;;;;;25.19;60.47;97109.22;4230722;28;5677;-65
2023/09/07 04:58:59;;;;;;;;;;;;;;;25.20;60.51;97105.41;4237594;27;5750;-65
2023/09/07 05:01:03;;;;;;;;;;;;;;;25.20;60.17;97111.63;4228933;28;6374;-65
2023/09/07 05:03:06;;;;;;;;;;;;;;;25.20;60.23;97108.94;4230474;28;5785;-66
2023/09/07 05:05:09;;;;;;;;;;;;;;;25.19;59.92;97114.63;4223354;28;5665;-66
2023/09/07 05:07:12;;;;;;;;;;;;;;;25.20;59.97;97114.34;4218126;28;5752;-66
2023/09/07 05:09:16;;;;;;;;;;;;;;;25.19;60.01;97120.84;4219386;28;5697;-66
2023/09/07 05:11:19;;;;;;;;;;;;;;;25.21;59.54;97120.56;4217534;28;5804;-65
2023/09/07 05:13:21;;;;;;;;;;;;;;;25.22;59.95;97120.28;4216584;28;5689;-66
2023/09/07 05:15:24;;;;;;;;;;;;;;;25.21;59.92;97128.69;4215992;28;5665;-66
2023/09/07 05:17:27;;;;;;;;;;;;;;;25.20;59.86;97127.06;4208420;28;5109;-65
2023/09/07 05:19:30;;;;;;;;;;;;;;;25.21;59.58;97129.50;4219537;28;5662;-65
2023/09/07 05:21:33;;;;;;;;;;;;;;;25.22;59.46;97131.09;4215740;28;5879;-66
2023/09/07 05:23:35;;;;;;;;;;;;;;;25.22;59.49;97133.00;4216049;28;7024;-67
2023/09/07 05:25:45;;;;;;;;;;;;;;;25.22;59.67;97141.13;4217025;28;5881;-66
2023/09/07 05:27:49;;;;;;;;;;;;;;;25.22;59.55;97139.22;4218475;28;5657;-65
2023/09/07 05:29:52;;;;;;;;;;;;;;;25.24;59.81;97139.75;4215228;28;5665;-65
2023/09/07 05:31:55;;;;;;;;;;;;;;;25.24;59.82;97133.53;4219352;28;5788;-65
2023/09/07 14:37:46;;;;;;;;;;;;;;;26.13;55.58;97002.34;4214421;27;10323;-61
2023/09/07 14:39:50;;;;;;;;;;;;;;;26.43;55.75;97003.13;4215741;28;5755;-61
2023/09/07 14:41:53;;;;;;;;;;;;;;;26.63;55.22;97004.78;4214502;28;5697;-61
2023/09/07 14:43:57;;;;;;;;;;;;;;;26.80;54.97;97012.41;4208245;28;5675;-61
2023/09/07 14:46:00;;;;;;;;;;;;;;;26.96;54.58;96994.84;4209827;28;5841;-64
2023/09/07 14:48:04;;;;;;;;;;;;;;;27.10;54.35;96998.44;4204090;28;5922;-64
2023/09/07 14:50:08;;;;;;;;;;;;;;;27.22;54.05;96992.56;4204559;28;5697;-66
2023/09/07 14:52:12;;;;;;;;;;;;;;;27.30;53.99;96993.81;4201496;28;6509;-65
2023/09/07 14:54:16;;;;;;;;;;;;;;;27.35;53.85;96994.53;4210108;28;5780;-63
2023/09/07 14:56:18;;;;;;;;;;;;;;;27.41;53.57;96996.06;4212751;28;5777;-65
2023/09/07 14:58:21;;;;;;;;;;;;;;;27.46;53.43;96990.56;4213131;28;5855;-64
2023/09/07 15:00:24;;;;;;;;;;;;;;;27.51;52.92;96986.94;4215131;28;7706;-67
2023/09/07 15:02:27;;;;;;;;;;;;;;;27.58;52.78;96990.09;4215851;28;5787;-67
2023/09/07 15:04:29;;;;;;;;;;;;;;;27.61;52.81;96994.91;4211048;28;5689;-64
2023/09/07 15:06:33;;;;;;;;;;;;;;;27.63;52.38;96984.56;4211187;28;5694;-63
2023/09/07 15:08:36;;;;;;;;;;;;;;;27.65;52.50;96984.31;4213588;28;5090;-63
2023/09/07 15:10:40;;;;;;;;;;;;;;;27.66;52.17;96981.28;4213551;28;5705;-61
2023/09/07 15:12:43;;;;;;;;;;;;;;;27.68;52.10;96979.09;4213046;28;5772;-61
2023/09/07 15:14:46;;;;;;;;;;;;;;;27.70;52.03;96976.88;4205337;28;6601;-61
2023/09/07 15:16:48;;;;;;;;;;;;;;;27.71;52.06;96978.47;4213579;28;5698;-61
2023/09/07 15:18:52;;;;;;;;;;;;;;;27.72;51.81;96976.56;4217908;28;5757;-61
2023/09/07 15:20:56;;;;;;;;;;;;;;;27.74;51.79;96977.06;4213551;28;5777;-61
2023/09/07 15:22:58;;;;;;;;;;;;;;;27.74;51.63;96974.34;4213125;28;5814;-62
2023/09/07 15:25:01;;;;;;;;;;;;;;;27.73;51.72;96973.53;4213247;28;5749;-62
2023/09/07 15:27:10;;;;;;;;;;;;;;;27.76;51.55;96972.97;4212758;28;5849;-61
2023/09/07 15:29:13;;;;;;;;;;;;;;;27.78;51.38;96973.47;4212557;28;5796;-61
2023/09/07 15:31:16;;;;;;;;;;;;;;;27.79;51.11;96968.84;4213594;28;5679;-62
2023/09/07 15:33:19;;;;;;;;;;;;;;;27.80;50.93;96979.41;4211434;28;5710;-62
2023/09/07 15:35:23;;;;;;;;;;;;;;;27.80;51.15;96975.88;4208402;28;5681;-62
2023/09/07 15:37:26;;;;;;;;;;;;;;;27.82;50.80;96973.66;4204990;28;5788;-62
2023/09/07 15:39:29;;;;;;;;;;;;;;;27.81;50.87;96978.28;4194038;28;5686;-62
2023/09/07 15:41:32;;;;;;;;;;;;;;;27.81;50.83;96972.88;4199211;28;5696;-62
2023/09/07 15:43:36;;;;;;;;;;;;;;;27.80;50.72;96976.69;4202556;28;5702;-63
2023/09/07 15:45:39;;;;;;;;;;;;;;;27.80;50.57;96970.44;4201348;28;5824;-63
2023/09/07 15:47:41;;;;;;;;;;;;;;;27.80;50.49;96968.53;4202261;28;5808;-63
2023/09/07 15:49:45;;;;;;;;;;;;;;;27.80;50.37;96971.25;4192889;28;5725;-62
2023/09/07 15:51:48;;;;;;;;;;;;;;;27.81;50.49;96970.16;4195445;28;5846;-63
2023/09/07 15:53:51;;;;;;;;;;;;;;;27.81;50.43;96966.63;4201511;28;5745;-63
2023/09/07 15:55:54;;;;;;;;;;;;;;;27.82;50.33;96965.53;4202284;28;5780;-61
2023/09/07 15:57:57;;;;;;;;;;;;;;;27.83;50.15;96969.84;4192593;28;5822;-61
2023/09/07 16:00:01;;;;;;;;;;;;;;;27.84;49.85;96968.72;4194994;28;5856;-61
2023/09/07 16:02:04;;;;;;;;;;;;;;;27.84;49.96;96966.03;4188132;28;5859;-61
2023/09/07 16:04:07;;;;;;;;;;;;;;;27.84;49.78;96963.31;4197624;28;5094;-61
2023/09/07 16:06:10;;;;;;;;;;;;;;;27.84;49.62;96963.31;4198503;28;5686;-61
2023/09/07 16:08:13;;;;;;;;;;;;;;;27.84;49.84;96955.94;4192193;28;5749;-61
2023/09/07 16:10:16;;;;;;;;;;;;;;;27.85;49.68;96956.75;4199843;28;5690;-61
2023/09/07 16:12:19;;;;;;;;;;;;;;;27.87;49.52;96961.91;4199703;28;5836;-61
2023/09/07 16:14:22;;;;;;;;;;;;;;;27.88;49.54;96958.91;4202174;28;5784;-61
2023/09/07 16:16:26;;;;;;;;;;;;;;;27.90;49.39;96961.31;4202125;28;5775;-61
2023/09/07 16:18:29;;;;;;;;;;;;;;;27.93;49.28;96968.84;4201738;28;5788;-61
2023/09/07 16:20:32;;;;;;;;;;;;;;;27.95;49.04;96967.44;4202053;28;5805;-61
2023/09/07 16:22:35;;;;;;;;;;;;;;;27.93;49.14;96963.41;4202095;28;5773;-61
2023/09/07 16:24:38;;;;;;;;;;;;;;;27.93;49.03;96963.41;4202069;28;5785;-61
2023/09/07 16:26:41;;;;;;;;;;;;;;;27.91;49.21;96961.00;4195687;28;5891;-58
2023/09/07 16:28:44;;;;;;;;;;;;;;;27.92;49.01;96962.63;4196887;28;5690;-61
2023/09/07 16:30:47;;;;;;;;;;;;;;;27.93;48.85;96963.41;4199531;28;5710;-61
2023/09/07 16:32:51;;;;;;;;;;;;;;;27.92;48.96;96961.81;4189288;28;5823;-61
2023/09/07 16:34:54;;;;;;;;;;;;;;;27.91;49.07;96955.56;4193013;28;5726;-61
2023/09/07 16:36:57;;;;;;;;;;;;;;;27.90;49.04;96959.41;4200214;28;5794;-61
2023/09/07 16:39:00;;;;;;;;;;;;;;;27.90;48.97;96964.03;4194478;28;5819;-61
2023/09/07 16:41:06;;;;;;;;;;;;;;;27.88;49.02;96952.66;4194787;28;5829;-61
2023/09/07 16:43:09;;;;;;;;;;;;;;;27.87;49.12;96954.56;4193114;28;5693;-62
2023/09/07 16:45:12;;;;;;;;;;;;;;;27.87;49.07;96959.19;4187329;28;5797;-62
2023/09/07 16:47:15;;;;;;;;;;;;;;;27.89;48.98;96959.69;4196429;28;5705;-62
2023/09/07 16:49:19;;;;;;;;;;;;;;;27.88;49.08;96956.19;4194430;28;5686;-62
2023/09/07 16:51:22;;;;;;;;;;;;;;;27.88;49.03;96955.38;4199257;28;5773;-62
2023/09/07 16:53:25;;;;;;;;;;;;;;;27.87;48.96;96948.34;4195635;28;5981;-62
2023/09/07 16:55:28;;;;;;;;;;;;;;;27.87;49.02;96948.34;4191011;28;5925;-64
2023/09/07 16:57:34;;;;;;;;;;;;;;;27.87;48.91;96948.34;4192051;28;5782;-66
2023/09/07 16:59:37;;;;;;;;;;;;;;;27.87;48.91;96943.72;4197586;28;5121;-62
2023/09/07 17:01:59;;;;;;;;;;;;;;;27.85;48.96;96946.69;4191115;28;5837;-62
2023/09/07 17:04:02;;;;;;;;;;;;;;;27.84;48.91;96945.09;4194590;28;6566;-62
2023/09/07 17:06:07;;;;;;;;;;;;;;;27.84;49.15;96945.09;4199880;28;5717;-62
2023/09/07 17:08:11;;;;;;;;;;;;;;;27.84;49.17;96952.44;4198781;28;6501;-62
2023/09/07 17:10:13;;;;;;;;;;;;;;;27.83;49.06;96950.81;4199108;28;5767;-62
2023/09/07 17:12:17;;;;;;;;;;;;;;;27.83;49.04;96954.34;4192521;28;5817;-62
2023/09/07 17:14:18;;;;;;;;;;;;;;;27.81;49.25;96948.41;4192386;28;6377;-62
2023/09/07 17:16:21;;;;;;;;;;;;;;;27.83;49.43;96948.91;4195153;28;5731;-62
2023/09/07 17:18:24;;;;;;;;;;;;;;;27.88;49.62;96955.38;4199275;28;5835;-63
2023/09/07 17:20:27;;;;;;;;;;;;;;;27.89;49.72;96954.28;4200274;28;5764;-62
2023/09/07 17:22:32;;;;;;;;;;;;;;;27.90;50.04;96947.72;4194416;28;5709;-63
2023/09/07 17:24:35;;;;;;;;;;;;;;;27.90;50.17;96961.31;4195137;28;5735;-63
2023/09/07 17:26:38;;;;;;;;;;;;;;;27.91;50.66;96954.78;4191745;28;5726;-62
2023/09/07 17:28:41;;;;;;;;;;;;;;;27.90;51.02;96951.25;4190478;28;5780;-62
2023/09/07 17:30:44;;;;;;;;;;;;;;;27.91;51.27;96947.41;4198950;28;5792;-63
2023/09/07 17:32:47;;;;;;;;;;;;;;;27.92;51.55;96956.38;4189122;28;6695;-62
2023/09/07 17:34:50;;;;;;;;;;;;;;;27.91;52.00;96954.78;4189876;28;5776;-63
2023/09/07 17:36:53;;;;;;;;;;;;;;;27.91;52.33;96950.13;4191698;28;5785;-62
2023/09/07 17:38:57;;;;;;;;;;;;;;;27.92;52.51;96956.38;4190723;28;5824;-63
2023/09/07 17:41:00;;;;;;;;;;;;;;;27.91;53.08;96954.78;4195200;28;5803;-62
2023/09/07 17:43:03;;;;;;;;;;;;;;;27.90;53.48;96964.03;4194174;28;7730;-63
2023/09/07 17:45:07;;;;;;;;;;;;;;;27.85;53.89;96963.00;4196651;28;5817;-62
2023/09/07 17:47:09;;;;;;;;;;;;;;;27.84;53.86;96966.03;4194523;28;5730;-62
2023/09/07 17:49:13;;;;;;;;;;;;;;;27.82;53.75;96970.94;4186976;28;5818;-62
2023/09/07 17:51:16;;;;;;;;;;;;;;;27.79;54.07;96964.22;4190153;28;5737;-62
2023/09/07 17:53:18;;;;;;;;;;;;;;;27.78;53.72;96968.03;4194354;28;5689;-62
2023/09/07 17:55:23;;;;;;;;;;;;;;;27.76;53.77;96961.28;4187654;28;6415;-62
2023/09/07 17:57:26;;;;;;;;;;;;;;;27.74;53.79;96967.00;4193775;28;5697;-63
2023/09/07 17:59:29;;;;;;;;;;;;;;;27.71;53.78;96973.03;4192105;28;5722;-63
2023/09/07 18:01:32;;;;;;;;;;;;;;;27.72;53.79;96976.56;4189014;28;5926;-63
2023/09/07 18:03:34;;;;;;;;;;;;;;;27.71;53.83;96977.66;4185176;28;5843;-63
2023/09/07 18:05:37;;;;;;;;;;;;;;;27.70;53.64;96981.50;4191571;28;5819;-63
2023/09/07 18:07:40;;;;;;;;;;;;;;;27.68;53.76;96981.00;4184676;28;5847;-63
2023/09/07 18:09:44;;;;;;;;;;;;;;;27.67;53.65;96982.91;4199420;28;5686;-63
2023/09/07 18:11:48;;;;;;;;;;;;;;;27.67;53.88;96988.34;4184282;28;5840;-62
2023/09/07 18:13:51;;;;;;;;;;;;;;;27.67;53.75;96988.34;4199337;28;5694;-62
2023/09/07 18:16:13;;;;;;;;;;;;;;;27.65;53.95;96990.53;4188200;28;5723;-62
2023/09/07 18:18:15;;;;;;;;;;;;;;;27.65;53.93;96987.03;4192556;28;5107;-62
2023/09/07 18:20:19;;;;;;;;;;;;;;;27.63;54.34;96984.56;4199558;28;5693;-62
2023/09/07 18:22:22;;;;;;;;;;;;;;;27.63;54.05;96981.84;4199370;28;5709;-62
2023/09/07 18:24:25;;;;;;;;;;;;;;;27.62;54.02;96990.28;4201434;28;5929;-62
2023/09/07 18:26:29;;;;;;;;;;;;;;;27.61;54.15;96984.03;4201551;28;5837;-62
2023/09/07 18:28:34;;;;;;;;;;;;;;;27.60;54.11;96989.78;4198938;28;5937;-62
2023/09/07 18:30:39;;;;;;;;;;;;;;;27.59;54.08;96991.69;4199527;28;7744;-62
2023/09/07 18:32:42;;;;;;;;;;;;;;;27.59;54.15;96990.88;4199254;28;5698;-63
2023/09/07 18:34:46;;;;;;;;;;;;;;;27.58;54.07;96992.81;4191473;28;6145;-63
2023/09/07 18:36:49;;;;;;;;;;;;;;;27.59;54.18;96997.13;4190321;28;5681;-63
2023/09/07 18:38:52;;;;;;;;;;;;;;;27.58;54.17;97005.56;4195801;28;5723;-63
2023/09/07 18:40:54;;;;;;;;;;;;;;;27.58;54.19;97005.56;4194934;28;5994;-63
2023/09/07 18:42:58;;;;;;;;;;;;;;;27.56;54.24;97003.16;4199747;28;6599;-63
2023/09/07 18:45:03;;;;;;;;;;;;;;;27.56;54.35;97014.03;4197955;28;5698;-63
2023/09/07 18:47:06;;;;;;;;;;;;;;;27.55;54.31;96998.84;4189870;28;5697;-63
2023/09/07 18:49:09;;;;;;;;;;;;;;;27.54;54.32;96998.03;4192302;28;6106;-67
2023/09/07 18:51:12;;;;;;;;;;;;;;;27.54;54.45;96997.22;4195685;28;5674;-63
2023/09/07 18:53:15;;;;;;;;;;;;;;;27.54;54.65;97000.75;4196034;28;5689;-63
2023/09/07 18:55:19;;;;;;;;;;;;;;;27.53;54.79;96999.13;4190501;28;5827;-63
2023/09/07 18:57:22;;;;;;;;;;;;;;;27.53;54.56;96992.91;4196740;28;5810;-63
2023/09/07 18:59:25;;;;;;;;;;;;;;;27.53;54.71;96995.63;4204445;28;5722;-63
2023/09/07 19:01:29;;;;;;;;;;;;;;;27.52;54.67;97002.13;4199945;28;5102;-63
2023/09/07 19:03:32;;;;;;;;;;;;;;;27.53;54.78;96998.31;4200052;28;5911;-63
2023/09/07 19:05:35;;;;;;;;;;;;;;;27.54;54.92;96999.94;4195653;28;5701;-63
2023/09/07 19:07:39;;;;;;;;;;;;;;;27.54;54.90;97005.38;4192539;28;5844;-63
2023/09/07 19:09:42;;;;;;;;;;;;;;;27.51;54.75;97001.31;4191803;28;5827;-63
2023/09/07 19:11:45;;;;;;;;;;;;;;;27.53;54.89;96998.31;4196496;28;5705;-63
2023/09/07 19:13:48;;;;;;;;;;;;;;;27.53;54.97;97003.75;4202053;28;5828;-63
2023/09/07 19:15:50;;;;;;;;;;;;;;;27.52;54.93;97002.94;4203359;28;6037;-63
2023/09/07 19:17:54;;;;;;;;;;;;;;;27.52;55.00;97004.84;4198946;28;5703;-63
2023/09/07 19:19:57;;;;;;;;;;;;;;;27.51;55.06;97011.38;4202744;28;5677;-63
2023/09/07 19:22:00;;;;;;;;;;;;;;;27.52;54.96;97007.53;4194694;28;5806;-63
2023/09/07 19:24:03;;;;;;;;;;;;;;;27.51;54.75;97005.94;4194795;28;6546;-63
2023/09/07 19:26:26;;;;;;;;;;;;;;;27.50;54.76;97012.47;4197892;28;5690;-62
2023/09/07 19:28:29;;;;;;;;;;;;;;;27.50;54.71;97015.19;4195769;28;5880;-62
2023/09/07 19:30:33;;;;;;;;;;;;;;;27.50;54.60;97007.03;4195076;28;5781;-62
2023/09/07 19:32:36;;;;;;;;;;;;;;;27.49;54.45;97002.72;4202958;28;5660;-62
2023/09/07 19:34:41;;;;;;;;;;;;;;;27.47;54.37;97011.16;4201933;28;6367;-62
2023/09/07 19:36:44;;;;;;;;;;;;;;;27.48;54.24;97012.78;4195207;28;5681;-62
2023/09/07 19:38:49;;;;;;;;;;;;;;;27.48;54.11;97011.97;4194474;28;6806;-63
2023/09/07 19:40:52;;;;;;;;;;;;;;;27.48;54.14;97011.97;4202315;28;5685;-63
2023/09/07 19:42:58;;;;;;;;;;;;;;;27.47;54.04;97008.44;4196551;28;6988;-63
2023/09/07 19:45:04;;;;;;;;;;;;;;;27.48;53.93;97011.97;4201907;28;5789;-63
2023/09/07 19:47:09;;;;;;;;;;;;;;;27.48;53.86;97014.69;4202212;28;5694;-63
2023/09/07 19:49:14;;;;;;;;;;;;;;;27.47;53.55;97007.66;4201200;28;5820;-63
2023/09/07 19:51:20;;;;;;;;;;;;;;;27.46;53.54;97014.19;4198147;28;5713;-63
2023/09/07 19:53:25;;;;;;;;;;;;;;;27.46;53.46;97017.69;4202230;28;5898;-63
2023/09/07 19:55:28;;;;;;;;;;;;;;;27.45;53.56;97015.28;4201246;28;5919;-63
2023/09/07 19:57:31;;;;;;;;;;;;;;;27.46;53.44;97011.47;4200669;28;5798;-63
2023/09/07 19:59:34;;;;;;;;;;;;;;;27.45;53.39;97013.38;4202168;28;5801;-62
2023/09/07 20:01:53;;;;;;;;;;;;;;;27.44;53.39;97016.38;4196957;28;5794;-63
2023/09/07 20:03:56;;;;;;;;;;;;;;;27.44;53.38;97019.91;4195942;28;5685;-63
2023/09/07 20:05:59;;;;;;;;;;;;;;;27.42;53.26;97022.13;4191855;28;5699;-63
2023/09/07 20:08:03;;;;;;;;;;;;;;;27.43;53.13;97023.72;4197237;28;7757;-63
2023/09/07 20:10:09;;;;;;;;;;;;;;;27.43;53.17;97014.78;4202025;28;5714;-63
2023/09/07 20:12:11;;;;;;;;;;;;;;;27.42;53.12;97018.59;4196010;28;5690;-63
2023/09/07 20:14:14;;;;;;;;;;;;;;;27.41;53.14;97020.50;4202029;28;5699;-62
2023/09/07 20:16:17;;;;;;;;;;;;;;;27.41;53.15;97020.50;4200223;28;5776;-63
2023/09/07 20:18:19;;;;;;;;;;;;;;;27.40;53.15;97021.59;4199884;28;5682;-63
2023/09/07 20:20:22;;;;;;;;;;;;;;;27.40;53.02;97020.78;4201881;28;5694;-63
2023/09/07 20:22:27;;;;;;;;;;;;;;;27.39;52.93;97021.88;4201324;28;5699;-63
2023/09/07 20:24:31;;;;;;;;;;;;;;;27.38;52.89;97025.69;4201891;28;5804;-63
2023/09/07 20:26:34;;;;;;;;;;;;;;;27.37;52.93;97019.47;4201705;28;5766;-63
2023/09/07 20:28:37;;;;;;;;;;;;;;;27.37;53.10;97026.81;4200908;28;5905;-63
2023/09/07 20:30:40;;;;;;;;;;;;;;;27.35;53.03;97018.97;4201529;28;5773;-63
2023/09/07 20:32:43;;;;;;;;;;;;;;;27.34;52.90;97011.94;4201490;28;5685;-62
2023/09/07 20:34:46;;;;;;;;;;;;;;;27.35;52.77;97020.88;4193881;28;5733;-69
2023/09/07 20:36:49;;;;;;;;;;;;;;;27.35;53.02;97018.16;4190247;28;5837;-67
2023/09/07 20:38:52;;;;;;;;;;;;;;;27.35;52.95;97018.16;4200518;28;5694;-67
2023/09/07 20:40:56;;;;;;;;;;;;;;;27.37;52.96;97019.47;4198719;28;5790;-67
2023/09/07 20:43:03;;;;;;;;;;;;;;;27.38;52.94;97023.00;4198837;28;5948;-67
2023/09/07 20:45:07;;;;;;;;;;;;;;;27.38;53.08;97023.78;4199349;28;5792;-67
2023/09/07 20:47:10;;;;;;;;;;;;;;;27.38;53.31;97017.56;4199397;28;5781;-67
2023/09/07 20:49:13;;;;;;;;;;;;;;;27.38;53.10;97023.00;4201440;28;5788;-67
2023/09/07 20:51:16;;;;;;;;;;;;;;;27.38;53.23;97023.00;4200533;28;5777;-67
2023/09/07 20:53:18;;;;;;;;;;;;;;;27.39;53.17;97016.44;4190798;28;5772;-67
